Time;durP1;ratioP1;P1;durP2;ratioP2;P2;SDS_P1;SDS_P2;PMS_P1;PMS_P2;Temp;Humidity;BMP_temperature;BMP_pressure;BME280_temperature;BME280_humidity;BME280_pressure;Samples;Min_cycle;Max_cycle;Signal;HPM_P1;HPM_P2
2022/06/05 00:02:40;;;;;;;8.48;6.22;;;23.90;69.10;;;;;;5009746;28;20022;-62
2022/06/05 00:05:12;;;;;;;11.00;6.72;;;23.90;69.10;;;;;;4999545;28;20026;-62
2022/06/05 00:07:51;;;;;;;9.73;6.07;;;24.00;69.00;;;;;;5005056;28;20060;-62
2022/06/05 00:10:18;;;;;;;10.90;7.13;;;23.90;69.20;;;;;;5010239;28;20034;-62
2022/06/05 00:13:09;;;;;;;9.13;6.78;;;24.00;69.20;;;;;;5002477;28;20117;-64
2022/06/05 00:15:35;;;;;;;12.45;8.63;;;24.00;69.10;;;;;;5011950;28;20092;-63
2022/06/05 00:18:01;;;;;;;13.55;6.70;;;24.00;69.10;;;;;;5011270;28;20060;-65
2022/06/05 00:20:27;;;;;;;11.32;6.93;;;24.00;69.20;;;;;;5012125;28;20034;-63
2022/06/05 00:22:53;;;;;;;11.30;6.38;;;24.10;69.10;;;;;;5012182;28;20026;-65
2022/06/05 00:25:18;;;;;;;9.07;8.07;;;24.00;68.80;;;;;;5002923;28;20027;-65
2022/06/05 00:28:00;;;;;;;9.07;7.63;;;24.00;68.80;;;;;;5011985;28;20030;-65
2022/06/05 00:30:34;;;;;;;9.48;7.55;;;24.00;68.90;;;;;;5010079;28;20104;-63
2022/06/05 00:33:15;;;;;;;10.90;7.85;;;24.00;68.60;;;;;;5004066;28;20030;-62
2022/06/05 00:35:51;;;;;;;11.57;8.07;;;24.10;68.60;;;;;;5002300;28;20038;-62
2022/06/05 00:38:42;;;;;;;12.32;8.27;;;24.00;68.60;;;;;;5005131;28;20042;-63
2022/06/05 00:41:08;;;;;;;10.38;9.27;;;24.00;68.70;;;;;;5009236;28;20034;-61
2022/06/05 00:43:33;;;;;;;12.00;9.65;;;24.00;68.70;;;;;;5001347;28;20033;-62
2022/06/05 00:46:00;;;;;;;10.18;8.43;;;23.90;68.70;;;;;;5011610;28;20034;-61
2022/06/05 00:48:26;;;;;;;10.35;8.75;;;23.90;68.80;;;;;;5004892;28;20056;-61
2022/06/05 00:50:52;;;;;;;13.57;10.40;;;23.90;69.10;;;;;;5011592;28;20528;-61
2022/06/05 00:53:17;;;;;;;15.20;11.43;;;23.90;69.20;;;;;;4990524;28;20476;-62
2022/06/05 00:55:48;;;;;;;11.80;10.65;;;23.90;69.10;;;;;;5007174;28;20110;-61
2022/06/05 00:58:14;;;;;;;13.43;10.90;;;23.90;68.80;;;;;;5007602;28;20116;-60
2022/06/05 01:00:48;;;;;;;10.65;9.52;;;23.90;68.60;;;;;;5001595;28;20506;-61
2022/06/05 01:03:16;;;;;;;11.73;9.98;;;23.90;68.40;;;;;;5007673;28;20084;-62
2022/06/05 01:05:42;;;;;;;13.68;9.88;;;23.90;68.40;;;;;;4989357;28;20335;-63
2022/06/05 01:08:10;;;;;;;11.82;10.50;;;23.80;68.50;;;;;;5003080;28;20030;-63
2022/06/05 01:10:48;;;;;;;14.38;10.88;;;23.80;68.60;;;;;;5007806;28;20033;-61
2022/06/05 01:13:45;;;;;;;14.32;11.30;;;23.80;68.80;;;;;;5004750;28;20029;-62
2022/06/05 01:16:34;;;;;;;14.30;10.75;;;23.80;69.10;;;;;;5005677;28;20113;-58
2022/06/05 01:19:25;;;;;;;12.95;11.55;;;23.70;68.90;;;;;;4999241;28;20430;-60
2022/06/05 01:22:19;;;;;;;14.25;12.05;;;23.70;69.00;;;;;;5007311;28;20108;-58
2022/06/05 01:25:11;;;;;;;13.75;11.23;;;23.80;68.70;;;;;;4980581;28;20070;-58
2022/06/05 01:27:41;;;;;;;13.57;9.65;;;23.80;68.50;;;;;;5005120;28;20046;-59
2022/06/05 01:30:16;;;;;;;12.25;9.45;;;23.80;68.30;;;;;;5009874;28;20018;-58
2022/06/05 01:32:55;;;;;;;15.68;12.30;;;23.80;68.10;;;;;;5015022;28;20026;-58
2022/06/05 01:35:42;;;;;;;14.68;13.18;;;23.90;68.00;;;;;;5013530;28;20436;-59
2022/06/05 01:38:14;;;;;;;16.20;12.25;;;23.90;67.70;;;;;;5006316;28;20045;-59
2022/06/05 01:40:48;;;;;;;12.98;11.57;;;23.90;67.70;;;;;;5011270;28;20033;-59
2022/06/05 01:43:19;;;;;;;14.90;13.40;;;23.90;67.40;;;;;;5012601;28;20026;-59
2022/06/05 01:46:17;;;;;;;15.57;13.38;;;23.90;67.20;;;;;;4993783;28;20121;-59
2022/06/05 01:48:53;;;;;;;15.93;13.90;;;23.90;67.00;;;;;;5013167;28;20526;-59
2022/06/05 01:51:29;;;;;;;15.13;13.60;;;23.90;66.80;;;;;;5014726;28;20437;-59
2022/06/05 01:53:58;;;;;;;14.27;11.75;;;23.80;66.90;;;;;;5014808;28;20160;-58
2022/06/05 01:56:42;;;;;;;17.23;13.18;;;23.80;66.90;;;;;;5008294;28;20466;-57
2022/06/05 01:59:38;;;;;;;14.60;12.70;;;23.80;67.10;;;;;;5014744;28;20030;-58
2022/06/05 02:02:11;;;;;;;14.32;12.77;;;23.80;67.00;;;;;;5005492;28;20400;-59
2022/06/05 02:04:43;;;;;;;16.07;12.87;;;23.80;67.00;;;;;;5014707;28;20101;-59
2022/06/05 02:07:24;;;;;;;14.38;12.88;;;23.70;67.10;;;;;;5007638;28;20376;-59
2022/06/05 02:09:59;;;;;;;15.50;12.35;;;23.70;67.40;;;;;;5014512;28;20041;-58
2022/06/05 02:12:26;;;;;;;16.48;12.25;;;23.60;67.40;;;;;;5011814;28;20042;-59
2022/06/05 02:14:52;;;;;;;14.95;12.25;;;23.60;67.50;;;;;;5014747;28;20104;-59
2022/06/05 02:17:19;;;;;;;15.57;13.10;;;23.60;67.60;;;;;;5006499;28;20026;-58
2022/06/05 02:19:44;;;;;;;16.15;12.40;;;23.60;67.60;;;;;;5014203;28;20486;-59
2022/06/05 02:22:20;;;;;;;13.77;12.15;;;23.50;67.50;;;;;;5004512;28;20026;-59
2022/06/05 02:24:46;;;;;;;14.77;12.98;;;23.40;67.90;;;;;;5009820;28;20380;-60
2022/06/05 02:27:11;;;;;;;15.93;13.93;;;23.40;68.00;;;;;;5008239;28;20037;-63
2022/06/05 02:29:37;;;;;;;14.30;12.82;;;23.30;68.70;;;;;;5013773;28;20037;-58
2022/06/05 02:32:24;;;;;;;15.38;13.77;;;23.30;68.00;;;;;;5010743;28;20037;-58
2022/06/05 02:34:53;;;;;;;15.32;13.73;;;23.30;68.20;;;;;;5010838;28;20022;-59
2022/06/05 02:37:27;;;;;;;16.95;14.13;;;23.20;68.00;;;;;;5004690;28;20030;-59
2022/06/05 02:40:11;;;;;;;17.45;14.40;;;23.20;68.40;;;;;;5010351;28;20022;-59
2022/06/05 02:42:44;;;;;;;14.65;13.27;;;23.20;68.30;;;;;;5003277;28;20022;-60
2022/06/05 02:45:17;;;;;;;17.38;15.57;;;23.20;68.30;;;;;;5004045;28;20494;-59
2022/06/05 02:48:11;;;;;;;16.05;14.25;;;23.20;68.20;;;;;;5004435;28;20034;-58
2022/06/05 02:50:43;;;;;;;16.35;14.52;;;23.20;68.30;;;;;;4994162;28;20103;-60
2022/06/05 02:53:11;;;;;;;15.57;14.18;;;23.10;68.40;;;;;;5005480;28;20348;-60
2022/06/05 02:55:37;;;;;;;15.88;14.45;;;23.10;68.40;;;;;;5003976;28;20029;-58
2022/06/05 02:58:03;;;;;;;16.65;15.05;;;23.10;68.40;;;;;;5005138;28;20022;-59
2022/06/05 03:00:32;;;;;;;16.42;14.82;;;23.20;68.30;;;;;;5003556;28;20021;-60
2022/06/05 03:05:43;;;;;;;17.65;15.98;;;23.00;68.20;;;;;;5005500;28;20080;-58
2022/06/05 03:08:13;;;;;;;17.42;15.93;;;23.10;68.30;;;;;;5002241;28;20430;-59
2022/06/05 03:10:41;;;;;;;19.17;15.35;;;23.10;68.40;;;;;;5003600;28;20014;-58
2022/06/05 03:13:07;;;;;;;18.30;16.40;;;23.00;68.40;;;;;;5003847;28;20030;-60
2022/06/05 03:15:34;;;;;;;18.40;16.58;;;23.00;68.40;;;;;;5002913;28;20660;-58
2022/06/05 03:17:59;;;;;;;17.70;15.90;;;23.00;68.40;;;;;;5002940;28;20029;-59
2022/06/05 03:20:25;;;;;;;16.98;15.38;;;23.00;68.40;;;;;;5002127;28;20026;-58
2022/06/05 03:22:51;;;;;;;19.30;16.90;;;23.00;68.40;;;;;;4982019;28;20018;-58
2022/06/05 03:25:19;;;;;;;17.90;15.95;;;23.10;68.40;;;;;;5002170;28;20018;-58
2022/06/05 03:27:45;;;;;;;17.50;15.80;;;23.10;68.30;;;;;;4984769;28;20396;-58
2022/06/05 03:30:13;;;;;;;18.60;16.52;;;23.10;68.10;;;;;;5001483;28;20060;-58
2022/06/05 03:32:39;;;;;;;21.20;16.33;;;23.10;68.00;;;;;;5002309;28;20475;-58
2022/06/05 03:35:05;;;;;;;18.70;16.73;;;23.10;67.90;;;;;;5003947;28;20041;-59
2022/06/05 03:37:32;;;;;;;18.83;16.95;;;23.20;67.70;;;;;;5002922;28;20057;-59
2022/06/05 03:39:58;;;;;;;17.10;15.50;;;23.20;67.40;;;;;;4985139;28;20439;-58
2022/06/05 03:42:24;;;;;;;18.35;16.55;;;23.30;67.30;;;;;;4983792;28;20030;-58
2022/06/05 03:44:50;;;;;;;18.92;17.13;;;23.30;67.20;;;;;;5004928;28;20117;-60
2022/06/05 03:47:16;;;;;;;18.77;16.55;;;23.40;67.10;;;;;;5003035;28;20113;-58
2022/06/05 03:49:42;;;;;;;19.30;17.20;;;23.30;66.80;;;;;;5002745;28;20042;-59
2022/06/05 03:52:10;;;;;;;18.42;16.60;;;23.40;66.80;;;;;;5000591;28;20549;-59
2022/06/05 03:54:37;;;;;;;19.17;17.27;;;23.40;66.80;;;;;;5004506;28;20037;-60
2022/06/05 03:57:04;;;;;;;17.88;15.93;;;23.30;66.80;;;;;;5002971;28;20439;-59
2022/06/05 03:59:30;;;;;;;20.42;18.17;;;23.30;66.80;;;;;;5003407;28;20038;-58
2022/06/05 04:01:56;;;;;;;18.08;16.27;;;23.40;66.60;;;;;;4987462;28;20049;-58
2022/06/05 04:04:23;;;;;;;19.30;17.27;;;23.40;66.70;;;;;;5003246;28;20022;-58
2022/06/05 04:06:48;;;;;;;18.92;17.00;;;23.40;66.60;;;;;;5005005;28;20068;-58
2022/06/05 04:09:14;;;;;;;17.73;16.08;;;23.40;66.60;;;;;;4999403;28;20037;-59
2022/06/05 04:11:40;;;;;;;17.65;15.98;;;23.50;66.40;;;;;;5012253;28;20126;-59
2022/06/05 04:14:08;;;;;;;18.30;16.33;;;23.50;66.30;;;;;;5002926;28;20427;-58
2022/06/05 04:16:34;;;;;;;19.52;17.48;;;23.60;66.20;;;;;;4979367;28;20085;-57
2022/06/05 04:19:02;;;;;;;19.73;16.85;;;23.60;65.90;;;;;;4995685;28;20503;-59
2022/06/05 04:21:31;;;;;;;24.15;17.75;;;23.60;65.80;;;;;;5008520;28;20037;-59
2022/06/05 04:23:58;;;;;;;18.95;17.13;;;23.70;65.70;;;;;;4989471;28;20022;-59
2022/06/05 04:26:26;;;;;;;18.33;16.25;;;23.70;65.50;;;;;;5007739;28;20041;-59
2022/06/05 04:28:53;;;;;;;20.10;18.10;;;23.90;65.30;;;;;;5010435;28;20490;-58
2022/06/05 04:31:35;;;;;;;18.55;16.55;;;23.80;65.00;;;;;;5010154;28;20034;-59
2022/06/05 04:34:03;;;;;;;18.65;16.80;;;23.90;64.90;;;;;;5011336;28;20375;-58
2022/06/05 04:36:29;;;;;;;19.67;17.70;;;23.90;64.70;;;;;;4992651;28;20034;-57
2022/06/05 04:38:55;;;;;;;19.92;17.92;;;23.90;64.40;;;;;;4993789;28;20026;-58
2022/06/05 04:41:21;;;;;;;18.60;16.70;;;24.00;64.20;;;;;;5008196;28;20081;-58
2022/06/05 04:43:48;;;;;;;19.38;17.55;;;23.90;64.10;;;;;;5005302;28;20472;-56
2022/06/05 04:46:17;;;;;;;18.75;16.95;;;23.90;64.20;;;;;;4998010;28;20074;-58
2022/06/05 04:48:42;;;;;;;18.90;17.10;;;24.00;64.10;;;;;;5009778;28;20062;-59
2022/06/05 04:51:12;;;;;;;21.25;18.45;;;24.00;63.70;;;;;;5007177;28;20086;-59
2022/06/05 04:53:39;;;;;;;20.25;18.30;;;23.90;63.60;;;;;;4989839;28;20042;-58
2022/06/05 04:56:10;;;;;;;21.50;19.40;;;23.80;64.20;;;;;;5006228;28;20493;-58
2022/06/05 04:58:36;;;;;;;21.77;19.67;;;23.90;64.00;;;;;;5003538;28;20057;-58
2022/06/05 05:01:08;;;;;;;20.75;18.75;;;23.90;63.90;;;;;;5003266;28;20026;-60
2022/06/05 05:03:34;;;;;;;19.27;17.27;;;23.90;63.90;;;;;;4997991;28;20037;-58
2022/06/05 05:05:59;;;;;;;20.67;18.58;;;23.80;64.00;;;;;;5006676;28;20030;-58
2022/06/05 05:08:25;;;;;;;18.88;16.95;;;23.80;64.00;;;;;;5007694;28;20129;-59
2022/06/05 05:10:51;;;;;;;19.88;17.33;;;23.90;64.20;;;;;;5015121;28;20472;-59
2022/06/05 05:13:16;;;;;;;20.67;18.60;;;23.80;64.20;;;;;;5011828;28;20045;-59
2022/06/05 05:15:47;;;;;;;21.88;19.25;;;23.90;63.70;;;;;;5006929;28;20034;-59
2022/06/05 05:18:13;;;;;;;19.55;17.73;;;24.00;63.50;;;;;;5012822;28;20038;-58
2022/06/05 05:20:38;;;;;;;20.85;18.70;;;24.20;63.40;;;;;;5012742;28;20448;-59
2022/06/05 05:23:04;;;;;;;20.30;18.40;;;24.30;62.60;;;;;;5013600;28;20040;-58
2022/06/05 05:25:30;;;;;;;20.45;18.27;;;24.40;62.70;;;;;;5010823;28;20113;-60
2022/06/05 05:27:55;;;;;;;19.60;17.60;;;24.40;62.50;;;;;;5012145;28;20093;-59
2022/06/05 05:30:21;;;;;;;20.05;17.85;;;24.50;62.20;;;;;;5012259;28;20025;-59
2022/06/05 05:32:47;;;;;;;21.17;18.95;;;24.60;61.40;;;;;;5008220;28;20044;-60
2022/06/05 05:35:12;;;;;;;20.50;18.40;;;24.50;61.40;;;;;;5013278;28;20088;-57
2022/06/05 05:37:38;;;;;;;20.58;18.52;;;24.50;62.00;;;;;;5009053;28;20030;-57
2022/06/05 05:42:49;;;;;;;20.40;18.48;;;24.60;61.40;;;;;;5012595;28;20056;-57
2022/06/05 05:45:15;;;;;;;20.67;18.67;;;24.60;61.70;;;;;;5003816;28;20038;-60
2022/06/05 05:47:40;;;;;;;18.83;17.00;;;24.60;61.50;;;;;;4995275;28;20427;-59
2022/06/05 05:50:11;;;;;;;17.83;16.00;;;24.70;61.60;;;;;;5010950;28;20038;-57
2022/06/05 05:52:38;;;;;;;19.13;17.10;;;24.80;61.20;;;;;;4997763;28;20041;-58
2022/06/05 05:55:05;;;;;;;19.25;17.23;;;24.90;61.20;;;;;;5012916;28;20034;-58
2022/06/05 05:57:31;;;;;;;21.73;18.50;;;25.00;60.40;;;;;;5001383;28;20058;-58
2022/06/05 05:59:57;;;;;;;20.48;18.25;;;25.00;60.20;;;;;;4998196;28;20137;-58
2022/06/05 06:02:26;;;;;;;18.50;16.70;;;25.10;60.40;;;;;;5013446;28;20109;-60
2022/06/05 06:04:52;;;;;;;18.38;16.63;;;25.10;60.10;;;;;;5007959;28;20035;-58
2022/06/05 06:07:19;;;;;;;18.30;16.33;;;25.30;59.80;;;;;;5008868;28;20095;-58
2022/06/05 06:09:44;;;;;;;18.40;16.08;;;25.40;59.50;;;;;;5007799;28;20048;-59
2022/06/05 06:12:11;;;;;;;18.38;16.50;;;25.50;59.30;;;;;;5006724;28;20452;-58
2022/06/05 06:14:38;;;;;;;15.82;14.23;;;25.50;58.30;;;;;;5011089;28;20061;-57
2022/06/05 06:17:04;;;;;;;17.00;15.18;;;25.50;58.00;;;;;;5007230;28;20447;-58
2022/06/05 06:19:31;;;;;;;16.50;14.52;;;25.40;57.70;;;;;;5002653;28;20044;-57
2022/06/05 06:21:57;;;;;;;17.02;15.40;;;25.40;57.80;;;;;;5002839;28;20025;-58
2022/06/05 06:24:23;;;;;;;15.95;14.35;;;25.30;58.10;;;;;;5005122;28;20026;-59
2022/06/05 06:26:49;;;;;;;16.30;14.52;;;25.50;58.00;;;;;;5001627;28;20065;-58
2022/06/05 06:29:16;;;;;;;16.52;14.77;;;25.40;58.00;;;;;;5008509;28;20040;-58
2022/06/05 06:31:42;;;;;;;15.65;14.15;;;25.50;57.70;;;;;;5003316;28;20215;-59
2022/06/05 06:34:08;;;;;;;17.23;15.45;;;25.70;57.40;;;;;;5007872;28;20382;-58
2022/06/05 06:36:34;;;;;;;15.95;14.30;;;25.80;56.90;;;;;;4993698;28;20034;-58
2022/06/05 06:39:00;;;;;;;15.68;13.95;;;25.80;56.70;;;;;;5005996;28;20037;-57
2022/06/05 06:41:26;;;;;;;15.77;14.20;;;25.90;56.40;;;;;;5004821;28;20038;-59
2022/06/05 06:43:52;;;;;;;15.95;14.27;;;26.00;56.60;;;;;;4991708;28;20030;-61
2022/06/05 06:46:19;;;;;;;16.30;14.65;;;26.20;56.30;;;;;;5002873;28;20037;-59
2022/06/05 06:48:45;;;;;;;15.25;13.60;;;26.80;55.20;;;;;;4989866;28;20049;-60
2022/06/05 06:51:12;;;;;;;13.63;12.23;;;28.70;54.10;;;;;;5002137;28;20072;-59
2022/06/05 06:53:40;;;;;;;15.35;12.52;;;32.20;46.60;;;;;;5005239;28;20033;-59
2022/06/05 06:56:13;;;;;;;15.18;11.45;;;35.90;40.60;;;;;;5004009;28;20069;-59
2022/06/05 06:58:43;;;;;;;12.38;11.27;;;38.90;35.90;;;;;;5000162;28;20014;-60
2022/06/05 07:01:10;;;;;;;11.45;9.82;;;38.30;34.60;;;;;;5003614;28;20033;-59
2022/06/05 07:03:36;;;;;;;11.02;9.93;;;38.40;34.10;;;;;;5006351;28;20364;-59
2022/06/05 07:06:04;;;;;;;11.48;10.30;;;38.40;34.40;;;;;;5001919;28;20442;-65
2022/06/05 07:08:30;;;;;;;9.13;8.25;;;40.20;32.30;;;;;;4999976;28;20046;-59
2022/06/05 07:10:56;;;;;;;11.43;9.55;;;41.60;30.50;;;;;;5005712;28;20036;-59
2022/06/05 07:13:22;;;;;;;10.02;9.02;;;42.00;29.90;;;;;;5003892;28;20121;-59
2022/06/05 07:15:47;;;;;;;9.23;8.43;;;42.50;29.30;;;;;;5000169;28;20022;-59
2022/06/05 07:18:13;;;;;;;11.60;9.38;;;43.20;29.10;;;;;;5000679;28;20399;-60
2022/06/05 07:20:42;;;;;;;9.73;8.77;;;44.70;28.00;;;;;;5005310;28;20080;-60
2022/06/05 07:23:09;;;;;;;10.15;9.23;;;46.50;27.00;;;;;;4998873;28;20126;-60
2022/06/05 07:25:35;;;;;;;12.07;8.55;;;47.90;25.90;;;;;;5001104;28;20018;-59
2022/06/05 07:28:01;;;;;;;10.20;9.02;;;48.80;25.50;;;;;;5001703;28;20046;-59
2022/06/05 07:30:29;;;;;;;10.07;9.07;;;49.70;24.90;;;;;;4999903;28;20026;-61
2022/06/05 07:32:54;;;;;;;8.20;7.50;;;50.60;24.50;;;;;;4987322;28;20037;-60
2022/06/05 07:35:21;;;;;;;9.80;7.88;;;51.00;24.30;;;;;;4988230;28;20076;-60
2022/06/05 07:37:47;;;;;;;8.55;7.65;;;51.50;23.80;;;;;;5000073;28;20037;-60
2022/06/05 07:40:14;;;;;;;9.27;8.38;;;52.10;23.40;;;;;;4986313;28;20091;-58
2022/06/05 07:42:42;;;;;;;8.32;7.50;;;52.60;23.30;;;;;;5000571;28;20088;-58
2022/06/05 07:45:11;;;;;;;8.82;7.32;;;53.10;23.20;;;;;;4990501;28;20025;-58
2022/06/05 07:47:37;;;;;;;9.43;7.88;;;53.50;22.90;;;;;;4984061;28;20064;-59
2022/06/05 07:50:03;;;;;;;8.65;7.40;;;53.40;22.70;;;;;;4990554;28;20046;-59
2022/06/05 07:55:14;;;;;;;9.27;7.65;;;53.40;22.60;;;;;;5008889;28;20036;-59
2022/06/05 07:57:39;;;;;;;10.98;7.88;;;53.80;22.50;;;;;;5006460;28;20162;-59
2022/06/05 08:00:08;;;;;;;8.50;7.68;;;54.20;22.30;;;;;;4999187;28;20064;-59
2022/06/05 08:02:35;;;;;;;8.20;7.40;;;54.80;22.20;;;;;;5005900;28;20034;-59
2022/06/05 08:05:02;;;;;;;8.98;8.02;;;55.50;22.00;;;;;;4988135;28;20565;-59
2022/06/05 08:07:29;;;;;;;8.98;8.13;;;55.90;21.60;;;;;;5009299;28;20022;-59
2022/06/05 08:09:56;;;;;;;9.27;7.47;;;55.70;21.50;;;;;;5004354;28;20031;-60
2022/06/05 08:12:24;;;;;;;10.88;7.43;;;55.50;21.70;;;;;;5005381;28;20467;-61
2022/06/05 08:14:51;;;;;;;7.25;6.55;;;55.80;21.60;;;;;;5002832;28;20064;-61
2022/06/05 08:17:23;;;;;;;7.00;6.32;;;56.20;21.40;;;;;;5002321;28;20479;-60
2022/06/05 08:19:49;;;;;;;;;;;56.90;21.10;;;;;;5010360;28;20036;-60
2022/06/05 08:22:19;;;;;;;6.82;6.18;;;57.50;21.90;;;;;;5006318;28;20282;-59
2022/06/05 08:24:45;;;;;;;6.88;6.28;;;57.50;20.60;;;;;;4988436;28;20423;-61
2022/06/05 08:27:14;;;;;;;7.60;6.68;;;57.00;20.80;;;;;;5000904;28;20030;-62
2022/06/05 08:29:40;;;;;;;7.97;7.03;;;57.20;20.90;;;;;;4991214;28;20085;-61
2022/06/05 08:32:07;;;;;;;7.28;6.57;;;57.40;20.80;;;;;;4987936;28;20108;-61
2022/06/05 08:34:32;;;;;;;7.75;7.05;;;57.60;20.80;;;;;;4998437;28;20034;-61
2022/06/05 08:42:59;;;;;;;8.63;6.55;;;58.00;20.60;;;;;;4999745;28;20125;-60
2022/06/05 08:45:27;;;;;;;7.45;6.80;;;58.20;20.70;;;;;;5002031;28;20029;-61
2022/06/05 08:48:06;;;;;;;7.28;6.43;;;58.30;21.10;;;;;;5000174;28;20041;-61
2022/06/05 08:50:46;;;;;;;7.72;6.93;;;57.90;20.50;;;;;;4998943;28;20042;-61
2022/06/05 08:53:32;;;;;;;8.38;6.50;;;58.00;20.50;;;;;;4999124;28;20029;-61
2022/06/05 08:55:59;;;;;;;7.38;6.78;;;58.20;20.50;;;;;;4995656;28;20054;-61
2022/06/05 08:58:54;;;;;;;8.57;6.35;;;57.80;20.40;;;;;;4995546;28;20034;-62
2022/06/05 09:01:34;;;;;;;6.95;6.35;;;57.30;20.60;;;;;;4994879;28;20054;-62
2022/06/05 09:04:38;;;;;;;7.18;6.43;;;56.50;20.90;;;;;;4983105;28;20029;-61
2022/06/05 09:07:10;;;;;;;5.82;5.28;;;55.90;21.00;;;;;;4947214;29;20039;-61
2022/06/05 09:09:40;;;;;;;8.63;5.10;;;55.40;20.90;;;;;;4948643;29;20114;-60
2022/06/05 09:12:21;;;;;;;6.18;5.57;;;54.80;21.10;;;;;;4941775;29;20073;-62
2022/06/05 09:14:59;;;;;;;5.63;5.03;;;54.40;21.30;;;;;;4939708;29;20078;-62
2022/06/05 09:17:26;;;;;;;6.30;5.10;;;53.40;21.50;;;;;;4947909;29;20143;-59
2022/06/05 09:19:53;;;;;;;5.95;5.32;;;51.40;22.10;;;;;;4962241;28;20027;-59
2022/06/05 09:22:45;;;;;;;7.07;5.10;;;48.10;23.30;;;;;;4944322;28;20046;-60
2022/06/05 09:25:29;;;;;;;5.57;5.07;;;45.10;24.80;;;;;;4944659;29;20078;-60
2022/06/05 09:28:22;;;;;;;11.23;4.50;;;42.70;26.50;;;;;;4948215;29;20047;-60
2022/06/05 09:30:54;;;;;;;;;;;40.50;27.50;;;;;;4962998;28;20038;-59
2022/06/05 09:33:34;;;;;;;7.00;4.95;;;38.90;28.50;;;;;;4945480;28;19921;-60
2022/06/05 09:36:05;;;;;;;6.00;4.97;;;37.60;30.00;;;;;;4935640;29;20214;-60
2022/06/05 09:39:01;;;;;;;6.60;4.55;;;36.70;31.00;;;;;;4989154;28;20102;-60
2022/06/05 09:41:45;;;;;;;5.88;5.38;;;35.60;32.20;;;;;;5000970;28;20029;-59
2022/06/05 09:44:26;;;;;;;;;;;34.50;33.70;;;;;;5000603;28;20471;-59
2022/06/05 09:46:59;;;;;;;5.72;4.75;;;33.80;34.20;;;;;;5003051;28;20025;-60
2022/06/05 09:49:34;;;;;;;5.93;5.32;;;33.20;35.00;;;;;;4999653;28;20037;-59
2022/06/05 09:52:28;;;;;;;6.68;5.75;;;32.80;35.90;;;;;;5003711;28;20088;-61
2022/06/05 09:55:16;;;;;;;8.45;6.57;;;32.40;36.60;;;;;;4997543;28;20025;-60
2022/06/05 10:01:26;;;;;;;10.10;6.70;;;32.10;37.70;;;;;;5003753;28;20080;-61
2022/06/05 10:03:52;;;;;;;6.47;5.53;;;32.00;37.90;;;;;;4990396;28;20576;-60
2022/06/05 10:06:35;;;;;;;7.10;6.40;;;32.00;37.80;;;;;;5005457;28;20026;-61
2022/06/05 10:09:04;;;;;;;8.95;6.50;;;32.00;37.90;;;;;;5008528;28;20537;-59
2022/06/05 10:11:48;;;;;;;8.27;6.72;;;31.90;38.30;;;;;;5004584;28;20131;-62
2022/06/05 10:14:23;;;;;;;7.93;5.85;;;31.80;38.30;;;;;;5017800;28;20026;-60
2022/06/05 10:16:58;;;;;;;22.52;20.20;;;31.80;38.10;;;;;;5004294;28;20172;-62
2022/06/05 10:19:59;;;;;;;8.07;7.28;;;31.80;38.50;;;;;;4985233;28;20026;-62
2022/06/05 10:22:32;;;;;;;8.88;6.97;;;31.80;38.90;;;;;;4970568;28;20088;-60
2022/06/05 10:25:16;;;;;;;8.13;6.93;;;31.70;39.00;;;;;;5004921;28;20022;-60
2022/06/05 10:27:51;;;;;;;8.05;6.78;;;31.70;38.90;;;;;;5006485;28;20030;-61
2022/06/05 10:30:19;;;;;;;7.90;6.68;;;31.50;38.60;;;;;;4987582;28;20115;-62
2022/06/05 10:33:01;;;;;;;10.63;6.53;;;31.30;39.10;;;;;;5003362;28;20359;-60
2022/06/05 10:35:57;;;;;;;7.20;6.50;;;31.30;39.00;;;;;;4985687;28;20093;-60
2022/06/05 10:39:09;;;;;;;9.07;6.70;;;31.30;39.10;;;;;;4983614;28;20066;-61
2022/06/05 10:41:54;;;;;;;9.30;6.50;;;31.20;39.10;;;;;;4932166;29;20024;-60
2022/06/05 10:44:58;;;;;;;7.50;6.68;;;31.10;39.60;;;;;;5005251;28;20033;-59
2022/06/05 10:47:55;;;;;;;13.13;6.67;;;30.90;40.00;;;;;;4946344;28;20039;-60
2022/06/05 10:50:56;;;;;;;7.90;6.30;;;31.00;40.20;;;;;;4951814;28;20046;-60
2022/06/05 10:53:36;;;;;;;8.32;6.47;;;31.10;40.00;;;;;;4994841;28;20033;-59
2022/06/05 10:56:12;;;;;;;7.78;5.93;;;31.10;39.40;;;;;;5005192;28;20109;-60
2022/06/05 10:58:58;;;;;;;7.90;6.72;;;31.00;39.40;;;;;;5006068;28;20033;-60
2022/06/05 11:01:51;;;;;;;7.28;6.57;;;31.00;40.00;;;;;;5000081;28;20113;-60
2022/06/05 11:04:37;;;;;;;8.15;6.45;;;30.90;39.90;;;;;;5006441;28;20382;-60
2022/06/05 11:07:22;;;;;;;5.53;5.03;;;30.90;39.90;;;;;;5002796;28;20113;-60
2022/06/05 11:10:14;;;;;;;7.93;5.78;;;31.10;39.10;;;;;;5004195;28;20026;-59
2022/06/05 11:16:13;;;;;;;7.22;6.40;;;31.10;39.60;;;;;;5000514;28;20033;-59
2022/06/05 11:19:04;;;;;;;11.60;5.60;;;31.20;39.40;;;;;;5005255;28;20793;-59
2022/06/05 11:21:31;;;;;;;6.78;6.00;;;31.30;39.30;;;;;;4992003;28;20069;-59
2022/06/05 11:23:59;;;;;;;8.07;6.10;;;31.40;39.50;;;;;;5000887;28;20065;-59
2022/06/05 11:26:34;;;;;;;6.38;5.63;;;31.50;39.00;;;;;;4986041;28;20464;-59
2022/06/05 11:29:39;;;;;;;7.70;5.75;;;31.50;38.40;;;;;;5003911;28;20034;-60
2022/06/05 11:32:08;;;;;;;6.97;5.90;;;31.50;38.30;;;;;;5005492;28;20042;-60
2022/06/05 11:34:49;;;;;;;8.80;6.18;;;31.70;38.70;;;;;;5002991;28;20109;-61
2022/06/05 11:37:21;;;;;;;6.68;6.07;;;31.80;38.40;;;;;;5005966;28;20026;-60
2022/06/05 11:40:13;;;;;;;8.25;6.45;;;31.80;38.50;;;;;;4986355;28;20018;-59
2022/06/05 11:42:48;;;;;;;10.38;7.97;;;31.80;38.90;;;;;;5002773;28;20366;-60
2022/06/05 11:45:48;;;;;;;9.25;6.78;;;31.90;39.10;;;;;;5001581;28;20034;-59
2022/06/05 11:48:36;;;;;;;5.85;5.25;;;31.90;39.20;;;;;;5002155;28;20049;-60
2022/06/05 11:51:30;;;;;;;6.57;5.35;;;31.80;37.80;;;;;;4989347;28;20101;-59
2022/06/05 11:53:56;;;;;;;;;;;31.80;37.80;;;;;;4974047;28;20044;-60
2022/06/05 11:56:32;;;;;;;9.38;5.80;;;31.90;38.00;;;;;;5005464;28;19905;-60
2022/06/05 11:59:22;;;;;;;8.25;5.78;;;31.90;38.50;;;;;;4977444;28;20045;-60
2022/06/05 12:02:01;;;;;;;10.23;6.57;;;32.10;38.40;;;;;;5000402;28;20026;-60
2022/06/05 12:04:52;;;;;;;7.82;7.03;;;32.20;38.90;;;;;;5004357;28;20523;-61
2022/06/05 12:07:19;;;;;;;9.50;7.13;;;32.10;39.00;;;;;;5009450;28;20038;-59
2022/06/05 12:09:55;;;;;;;9.32;6.72;;;32.20;39.60;;;;;;4993739;28;20021;-59
2022/06/05 12:12:31;;;;;;;9.45;8.45;;;32.20;39.40;;;;;;4994152;28;20484;-59
2022/06/05 12:15:16;;;;;;;8.23;6.82;;;32.40;39.30;;;;;;5002691;28;20037;-60
2022/06/05 12:18:00;;;;;;;7.10;6.38;;;32.10;39.50;;;;;;5000205;28;20028;-60
2022/06/05 12:20:35;;;;;;;9.57;7.93;;;32.00;40.60;;;;;;5002412;28;20026;-59
2022/06/05 12:23:34;;;;;;;7.88;6.65;;;32.00;39.90;;;;;;5003320;28;20030;-59
2022/06/05 12:26:26;;;;;;;8.30;6.72;;;32.20;40.00;;;;;;5008833;28;20088;-60
2022/06/05 12:29:05;;;;;;;7.25;6.13;;;32.50;39.90;;;;;;5005005;28;20127;-60
2022/06/05 12:32:01;;;;;;;8.50;7.10;;;32.40;39.20;;;;;;4998915;28;20576;-60
2022/06/05 12:34:36;;;;;;;6.63;5.60;;;32.40;39.70;;;;;;4974315;28;20517;-60
2022/06/05 12:37:11;;;;;;;6.45;5.25;;;32.60;38.80;;;;;;5002793;28;20104;-60
2022/06/05 12:39:43;;;;;;;8.70;5.05;;;32.70;38.40;;;;;;5002386;28;20099;-60
2022/06/05 12:42:40;;;;;;;8.20;5.07;;;33.00;37.70;;;;;;5003201;28;20026;-59
2022/06/05 12:45:17;;;;;;;6.10;4.53;;;33.20;37.20;;;;;;4955716;28;20022;-60
2022/06/05 12:48:08;;;;;;;5.45;4.43;;;33.30;36.60;;;;;;5002197;28;20033;-61
2022/06/05 12:50:52;;;;;;;5.28;4.70;;;33.30;36.80;;;;;;4980435;28;20050;-60
2022/06/05 12:53:37;;;;;;;8.07;4.70;;;33.30;36.30;;;;;;5001616;28;20031;-60
2022/06/05 12:56:22;;;;;;;6.53;4.53;;;33.40;36.10;;;;;;5001684;28;20026;-60
2022/06/05 12:58:54;;;;;;;8.32;4.35;;;33.50;36.10;;;;;;5000185;28;20438;-60
2022/06/05 13:01:46;;;;;;;5.03;4.53;;;33.40;36.10;;;;;;5000468;28;20056;-60
2022/06/05 13:04:39;;;;;;;6.60;4.63;;;33.20;35.50;;;;;;5001201;28;20033;-60
2022/06/05 13:07:42;;;;;;;9.93;4.35;;;32.90;35.60;;;;;;5001491;28;20025;-60
2022/06/05 13:10:45;;;;;;;8.27;4.45;;;32.60;36.30;;;;;;4960557;28;20042;-61
2022/06/05 13:13:17;;;;;;;5.28;4.10;;;32.90;36.30;;;;;;5003707;28;20411;-60
2022/06/05 13:15:48;;;;;;;5.72;4.00;;;33.10;35.40;;;;;;5002390;28;20029;-59
2022/06/05 13:18:49;;;;;;;4.70;3.78;;;33.00;35.20;;;;;;5000652;28;20038;-60
2022/06/05 13:21:17;;;;;;;5.97;3.70;;;33.10;35.10;;;;;;5005926;28;20493;-60
2022/06/05 13:24:26;;;;;;;4.65;3.60;;;33.20;34.80;;;;;;4991936;28;20040;-60
2022/06/05 13:27:18;;;;;;;4.40;3.58;;;33.00;34.60;;;;;;5004556;28;20030;-60
2022/06/05 13:30:12;;;;;;;4.05;3.40;;;33.00;34.80;;;;;;5004284;28;20026;-59
2022/06/05 13:32:55;;;;;;;4.75;3.63;;;33.10;34.90;;;;;;5002849;28;20077;-59
2022/06/05 13:35:42;;;;;;;3.85;3.25;;;33.30;34.80;;;;;;5007295;28;20065;-58